sensor_id;sensor_type;location;lat;lon;timestamp;P1;durP1;ratioP1;P2;durP2;ratioP2
29200;SDS011;16244;51.956;12.980;2022-12-18T00:01:47;53.63;;;20.03;;
29200;SDS011;16244;51.956;12.980;2022-12-18T00:11:02;55.13;;;18.37;;
29200;SDS011;16244;51.956;12.980;2022-12-18T00:13:47;57.23;;;20.13;;
29200;SDS011;16244;51.956;12.980;2022-12-18T00:16:43;56.03;;;19.10;;
29200;SDS011;16244;51.956;12.980;2022-12-18T00:19:39;61.63;;;19.20;;
29200;SDS011;16244;51.956;12.980;2022-12-18T00:22:35;53.57;;;18.47;;
29200;SDS011;16244;51.956;12.980;2022-12-18T00:25:29;60.63;;;19.80;;
29200;SDS011;16244;51.956;12.980;2022-12-18T00:28:16;50.90;;;18.70;;
29200;SDS011;16244;51.956;12.980;2022-12-18T00:31:13;58.30;;;18.30;;
29200;SDS011;16244;51.956;12.980;2022-12-18T00:34:10;59.57;;;18.93;;
29200;SDS011;16244;51.956;12.980;2022-12-18T00:36:59;54.60;;;21.10;;
29200;SDS011;16244;51.956;12.980;2022-12-18T00:39:55;55.57;;;18.90;;
29200;SDS011;16244;51.956;12.980;2022-12-18T00:49:12;58.77;;;19.70;;
29200;SDS011;16244;51.956;12.980;2022-12-18T00:52:10;46.37;;;18.57;;
29200;SDS011;16244;51.956;12.980;2022-12-18T00:55:00;54.00;;;19.17;;
29200;SDS011;16244;51.956;12.980;2022-12-18T00:57:55;53.40;;;17.90;;
29200;SDS011;16244;51.956;12.980;2022-12-18T01:00:40;58.77;;;19.23;;
29200;SDS011;16244;51.956;12.980;2022-12-18T01:06:54;53.47;;;19.77;;
29200;SDS011;16244;51.956;12.980;2022-12-18T01:09:44;48.20;;;18.53;;
29200;SDS011;16244;51.956;12.980;2022-12-18T01:12:27;52.33;;;18.37;;
29200;SDS011;16244;51.956;12.980;2022-12-18T01:15:23;48.43;;;18.33;;
29200;SDS011;16244;51.956;12.980;2022-12-18T01:18:06;48.07;;;17.73;;
29200;SDS011;16244;51.956;12.980;2022-12-18T01:24:18;44.30;;;16.20;;
29200;SDS011;16244;51.956;12.980;2022-12-18T01:27:00;49.13;;;16.90;;
29200;SDS011;16244;51.956;12.980;2022-12-18T01:29:43;54.90;;;18.67;;
29200;SDS011;16244;51.956;12.980;2022-12-18T01:32:39;43.80;;;16.73;;
29200;SDS011;16244;51.956;12.980;2022-12-18T01:35:23;45.20;;;16.20;;
29200;SDS011;16244;51.956;12.980;2022-12-18T01:38:16;48.03;;;17.07;;
29200;SDS011;16244;51.956;12.980;2022-12-18T01:41:20;39.43;;;15.80;;
29200;SDS011;16244;51.956;12.980;2022-12-18T01:47:38;39.77;;;16.57;;
29200;SDS011;16244;51.956;12.980;2022-12-18T01:50:09;36.60;;;15.10;;
29200;SDS011;16244;51.956;12.980;2022-12-18T01:52:40;37.80;;;15.03;;
29200;SDS011;16244;51.956;12.980;2022-12-18T01:55:10;42.37;;;15.77;;
29200;SDS011;16244;51.956;12.980;2022-12-18T01:57:39;41.00;;;17.40;;
29200;SDS011;16244;51.956;12.980;2022-12-18T02:00:09;36.50;;;15.57;;
29200;SDS011;16244;51.956;12.980;2022-12-18T02:02:38;43.47;;;15.77;;
29200;SDS011;16244;51.956;12.980;2022-12-18T02:05:06;39.03;;;16.03;;
29200;SDS011;16244;51.956;12.980;2022-12-18T02:07:37;42.20;;;16.63;;
29200;SDS011;16244;51.956;12.980;2022-12-18T02:10:15;44.33;;;16.77;;
29200;SDS011;16244;51.956;12.980;2022-12-18T02:12:48;40.50;;;17.13;;
29200;SDS011;16244;51.956;12.980;2022-12-18T02:15:24;47.80;;;16.20;;
29200;SDS011;16244;51.956;12.980;2022-12-18T02:18:00;38.20;;;17.33;;
29200;SDS011;16244;51.956;12.980;2022-12-18T02:20:33;44.43;;;16.30;;
29200;SDS011;16244;51.956;12.980;2022-12-18T02:23:05;39.17;;;17.10;;
29200;SDS011;16244;51.956;12.980;2022-12-18T02:25:43;59.40;;;14.50;;
29200;SDS011;16244;51.956;12.980;2022-12-18T02:28:42;38.10;;;14.17;;
29200;SDS011;16244;51.956;12.980;2022-12-18T02:31:13;36.70;;;14.83;;
29200;SDS011;16244;51.956;12.980;2022-12-18T02:33:52;39.73;;;15.30;;
29200;SDS011;16244;51.956;12.980;2022-12-18T02:36:23;40.60;;;14.53;;
29200;SDS011;16244;51.956;12.980;2022-12-18T02:38:52;34.07;;;15.13;;
29200;SDS011;16244;51.956;12.980;2022-12-18T02:41:21;38.57;;;15.37;;
29200;SDS011;16244;51.956;12.980;2022-12-18T02:43:55;34.83;;;15.40;;
29200;SDS011;16244;51.956;12.980;2022-12-18T02:46:28;34.93;;;16.07;;
29200;SDS011;16244;51.956;12.980;2022-12-18T02:49:01;32.83;;;14.27;;
29200;SDS011;16244;51.956;12.980;2022-12-18T02:51:38;34.23;;;14.03;;
29200;SDS011;16244;51.956;12.980;2022-12-18T02:54:15;38.87;;;16.13;;
29200;SDS011;16244;51.956;12.980;2022-12-18T02:56:55;42.70;;;15.50;;
29200;SDS011;16244;51.956;12.980;2022-12-18T02:59:30;42.53;;;15.87;;
29200;SDS011;16244;51.956;12.980;2022-12-18T03:02:14;48.50;;;17.30;;
29200;SDS011;16244;51.956;12.980;2022-12-18T03:04:48;44.17;;;16.60;;
29200;SDS011;16244;51.956;12.980;2022-12-18T03:07:23;42.37;;;17.93;;
29200;SDS011;16244;51.956;12.980;2022-12-18T03:09:56;59.33;;;17.83;;
29200;SDS011;16244;51.956;12.980;2022-12-18T03:12:28;41.93;;;16.60;;
29200;SDS011;16244;51.956;12.980;2022-12-18T03:15:00;40.43;;;15.93;;
29200;SDS011;16244;51.956;12.980;2022-12-18T03:17:31;44.67;;;17.40;;
29200;SDS011;16244;51.956;12.980;2022-12-18T03:20:02;54.80;;;17.30;;
29200;SDS011;16244;51.956;12.980;2022-12-18T03:22:32;47.23;;;17.30;;
29200;SDS011;16244;51.956;12.980;2022-12-18T03:25:04;41.43;;;17.03;;
29200;SDS011;16244;51.956;12.980;2022-12-18T03:27:36;58.40;;;19.20;;
29200;SDS011;16244;51.956;12.980;2022-12-18T03:30:10;48.70;;;17.23;;
29200;SDS011;16244;51.956;12.980;2022-12-18T03:32:41;44.47;;;17.83;;
29200;SDS011;16244;51.956;12.980;2022-12-18T03:35:11;58.97;;;20.27;;
29200;SDS011;16244;51.956;12.980;2022-12-18T03:37:41;56.17;;;19.27;;
29200;SDS011;16244;51.956;12.980;2022-12-18T03:40:08;58.93;;;20.20;;
29200;SDS011;16244;51.956;12.980;2022-12-18T03:42:37;52.70;;;21.83;;
29200;SDS011;16244;51.956;12.980;2022-12-18T03:45:12;58.10;;;20.40;;
29200;SDS011;16244;51.956;12.980;2022-12-18T03:47:47;55.17;;;21.53;;
29200;SDS011;16244;51.956;12.980;2022-12-18T03:50:21;57.70;;;19.80;;
29200;SDS011;16244;51.956;12.980;2022-12-18T03:52:55;58.83;;;22.10;;
29200;SDS011;16244;51.956;12.980;2022-12-18T03:55:26;55.00;;;21.20;;
29200;SDS011;16244;51.956;12.980;2022-12-18T03:57:57;57.97;;;21.63;;
29200;SDS011;16244;51.956;12.980;2022-12-18T04:00:28;53.30;;;19.87;;
29200;SDS011;16244;51.956;12.980;2022-12-18T04:02:56;58.40;;;21.00;;
29200;SDS011;16244;51.956;12.980;2022-12-18T04:05:27;50.57;;;17.63;;
29200;SDS011;16244;51.956;12.980;2022-12-18T04:07:56;58.63;;;23.10;;
29200;SDS011;16244;51.956;12.980;2022-12-18T04:10:24;51.17;;;19.47;;
29200;SDS011;16244;51.956;12.980;2022-12-18T04:12:51;49.80;;;20.70;;
29200;SDS011;16244;51.956;12.980;2022-12-18T04:15:22;57.23;;;19.43;;
29200;SDS011;16244;51.956;12.980;2022-12-18T04:17:51;49.20;;;19.93;;
29200;SDS011;16244;51.956;12.980;2022-12-18T04:20:19;51.97;;;19.20;;
29200;SDS011;16244;51.956;12.980;2022-12-18T04:22:46;50.40;;;19.40;;
29200;SDS011;16244;51.956;12.980;2022-12-18T04:25:13;51.53;;;20.20;;
29200;SDS011;16244;51.956;12.980;2022-12-18T04:27:40;53.43;;;19.70;;
29200;SDS011;16244;51.956;12.980;2022-12-18T04:30:08;52.63;;;20.40;;
29200;SDS011;16244;51.956;12.980;2022-12-18T04:32:35;45.30;;;19.30;;
29200;SDS011;16244;51.956;12.980;2022-12-18T04:35:04;48.73;;;19.37;;
29200;SDS011;16244;51.956;12.980;2022-12-18T04:37:36;44.23;;;17.50;;
29200;SDS011;16244;51.956;12.980;2022-12-18T04:40:03;56.70;;;21.43;;
29200;SDS011;16244;51.956;12.980;2022-12-18T04:42:31;44.20;;;16.47;;
29200;SDS011;16244;51.956;12.980;2022-12-18T04:44:58;36.57;;;17.77;;
29200;SDS011;16244;51.956;12.980;2022-12-18T04:47:26;44.23;;;18.20;;
29200;SDS011;16244;51.956;12.980;2022-12-18T04:49:53;39.63;;;17.57;;
29200;SDS011;16244;51.956;12.980;2022-12-18T04:52:21;34.77;;;17.03;;
29200;SDS011;16244;51.956;12.980;2022-12-18T04:54:48;39.13;;;17.00;;
29200;SDS011;16244;51.956;12.980;2022-12-18T04:57:16;34.37;;;15.67;;
29200;SDS011;16244;51.956;12.980;2022-12-18T04:59:44;38.90;;;17.00;;
29200;SDS011;16244;51.956;12.980;2022-12-18T05:02:11;39.07;;;16.83;;
29200;SDS011;16244;51.956;12.980;2022-12-18T05:04:38;36.63;;;17.90;;
29200;SDS011;16244;51.956;12.980;2022-12-18T05:07:06;37.40;;;17.37;;
29200;SDS011;16244;51.956;12.980;2022-12-18T05:09:34;40.13;;;19.20;;
29200;SDS011;16244;51.956;12.980;2022-12-18T05:12:02;40.40;;;17.00;;
29200;SDS011;16244;51.956;12.980;2022-12-18T05:14:29;47.70;;;18.77;;
29200;SDS011;16244;51.956;12.980;2022-12-18T05:16:56;42.57;;;17.50;;
29200;SDS011;16244;51.956;12.980;2022-12-18T05:19:23;39.23;;;17.80;;
29200;SDS011;16244;51.956;12.980;2022-12-18T05:21:50;41.97;;;18.60;;
29200;SDS011;16244;51.956;12.980;2022-12-18T05:24:18;38.90;;;17.60;;
29200;SDS011;16244;51.956;12.980;2022-12-18T05:26:46;35.70;;;17.20;;
29200;SDS011;16244;51.956;12.980;2022-12-18T05:29:13;43.30;;;19.53;;
29200;SDS011;16244;51.956;12.980;2022-12-18T05:31:42;40.80;;;19.53;;
29200;SDS011;16244;51.956;12.980;2022-12-18T05:34:09;40.23;;;17.80;;
29200;SDS011;16244;51.956;12.980;2022-12-18T05:36:37;50.50;;;20.97;;
29200;SDS011;16244;51.956;12.980;2022-12-18T05:39:04;43.30;;;19.70;;
29200;SDS011;16244;51.956;12.980;2022-12-18T05:41:32;42.83;;;18.93;;
29200;SDS011;16244;51.956;12.980;2022-12-18T05:44:00;42.07;;;18.90;;
29200;SDS011;16244;51.956;12.980;2022-12-18T05:46:28;45.83;;;19.60;;
29200;SDS011;16244;51.956;12.980;2022-12-18T05:48:55;44.20;;;19.60;;
29200;SDS011;16244;51.956;12.980;2022-12-18T05:51:25;41.97;;;19.23;;
29200;SDS011;16244;51.956;12.980;2022-12-18T05:53:53;40.90;;;17.60;;
29200;SDS011;16244;51.956;12.980;2022-12-18T05:56:21;39.73;;;18.13;;
29200;SDS011;16244;51.956;12.980;2022-12-18T05:58:50;43.23;;;17.73;;
29200;SDS011;16244;51.956;12.980;2022-12-18T06:01:20;39.57;;;18.63;;
29200;SDS011;16244;51.956;12.980;2022-12-18T06:03:49;39.00;;;19.27;;
29200;SDS011;16244;51.956;12.980;2022-12-18T06:06:17;44.53;;;16.90;;
29200;SDS011;16244;51.956;12.980;2022-12-18T06:08:46;41.27;;;20.07;;
29200;SDS011;16244;51.956;12.980;2022-12-18T06:11:16;37.40;;;17.67;;
29200;SDS011;16244;51.956;12.980;2022-12-18T06:13:45;42.03;;;19.13;;
29200;SDS011;16244;51.956;12.980;2022-12-18T06:16:13;39.67;;;18.00;;
29200;SDS011;16244;51.956;12.980;2022-12-18T06:18:41;34.10;;;16.73;;
29200;SDS011;16244;51.956;12.980;2022-12-18T06:21:09;39.83;;;18.57;;
29200;SDS011;16244;51.956;12.980;2022-12-18T06:23:36;33.07;;;16.17;;
29200;SDS011;16244;51.956;12.980;2022-12-18T06:26:04;40.60;;;18.60;;
29200;SDS011;16244;51.956;12.980;2022-12-18T06:28:32;32.67;;;15.70;;
29200;SDS011;16244;51.956;12.980;2022-12-18T06:30:59;44.30;;;19.07;;
29200;SDS011;16244;51.956;12.980;2022-12-18T06:33:26;45.43;;;19.27;;
29200;SDS011;16244;51.956;12.980;2022-12-18T06:35:59;43.03;;;19.00;;
29200;SDS011;16244;51.956;12.980;2022-12-18T06:38:26;38.03;;;18.90;;
29200;SDS011;16244;51.956;12.980;2022-12-18T06:40:54;42.17;;;19.67;;
29200;SDS011;16244;51.956;12.980;2022-12-18T06:43:21;37.40;;;18.83;;
29200;SDS011;16244;51.956;12.980;2022-12-18T06:45:48;41.33;;;19.40;;
29200;SDS011;16244;51.956;12.980;2022-12-18T06:48:18;39.60;;;20.03;;
29200;SDS011;16244;51.956;12.980;2022-12-18T06:50:46;40.83;;;19.13;;
29200;SDS011;16244;51.956;12.980;2022-12-18T06:53:15;48.43;;;20.70;;
29200;SDS011;16244;51.956;12.980;2022-12-18T06:55:42;39.60;;;18.63;;
29200;SDS011;16244;51.956;12.980;2022-12-18T06:58:09;39.60;;;18.17;;
29200;SDS011;16244;51.956;12.980;2022-12-18T07:00:37;34.60;;;17.90;;
29200;SDS011;16244;51.956;12.980;2022-12-18T07:03:04;40.67;;;18.07;;
29200;SDS011;16244;51.956;12.980;2022-12-18T07:05:32;42.37;;;18.27;;
29200;SDS011;16244;51.956;12.980;2022-12-18T07:08:00;38.40;;;18.60;;
29200;SDS011;16244;51.956;12.980;2022-12-18T07:10:28;33.77;;;16.90;;
29200;SDS011;16244;51.956;12.980;2022-12-18T07:12:56;32.07;;;16.83;;
29200;SDS011;16244;51.956;12.980;2022-12-18T07:15:23;33.77;;;17.43;;
29200;SDS011;16244;51.956;12.980;2022-12-18T07:17:50;37.10;;;18.67;;
29200;SDS011;16244;51.956;12.980;2022-12-18T07:20:17;51.13;;;20.37;;
29200;SDS011;16244;51.956;12.980;2022-12-18T07:22:44;41.63;;;19.90;;
29200;SDS011;16244;51.956;12.980;2022-12-18T07:25:12;41.90;;;18.37;;
29200;SDS011;16244;51.956;12.980;2022-12-18T07:27:40;34.93;;;18.23;;
29200;SDS011;16244;51.956;12.980;2022-12-18T07:30:08;36.60;;;17.87;;
29200;SDS011;16244;51.956;12.980;2022-12-18T07:32:36;30.90;;;16.13;;
29200;SDS011;16244;51.956;12.980;2022-12-18T07:35:04;36.13;;;18.40;;
29200;SDS011;16244;51.956;12.980;2022-12-18T07:37:31;34.13;;;18.03;;
29200;SDS011;16244;51.956;12.980;2022-12-18T07:39:58;30.83;;;16.30;;
29200;SDS011;16244;51.956;12.980;2022-12-18T07:42:26;32.83;;;16.13;;
29200;SDS011;16244;51.956;12.980;2022-12-18T07:45:00;32.47;;;16.13;;
29200;SDS011;16244;51.956;12.980;2022-12-18T07:47:33;33.10;;;16.60;;
29200;SDS011;16244;51.956;12.980;2022-12-18T07:50:30;33.73;;;17.90;;
29200;SDS011;16244;51.956;12.980;2022-12-18T07:53:13;32.53;;;16.53;;
29200;SDS011;16244;51.956;12.980;2022-12-18T07:55:56;28.53;;;16.33;;
29200;SDS011;16244;51.956;12.980;2022-12-18T07:58:47;34.50;;;16.40;;
29200;SDS011;16244;51.956;12.980;2022-12-18T08:07:57;38.87;;;17.43;;
29200;SDS011;16244;51.956;12.980;2022-12-18T08:10:44;33.33;;;16.10;;
29200;SDS011;16244;51.956;12.980;2022-12-18T08:13:27;36.60;;;17.17;;
29200;SDS011;16244;51.956;12.980;2022-12-18T08:16:26;39.03;;;17.33;;
29200;SDS011;16244;51.956;12.980;2022-12-18T08:19:09;33.50;;;16.80;;
29200;SDS011;16244;51.956;12.980;2022-12-18T08:31:57;34.97;;;16.30;;
29200;SDS011;16244;51.956;12.980;2022-12-18T08:34:55;37.27;;;17.70;;
29200;SDS011;16244;51.956;12.980;2022-12-18T08:37:50;43.43;;;19.40;;
29200;SDS011;16244;51.956;12.980;2022-12-18T08:40:18;37.70;;;17.10;;
29200;SDS011;16244;51.956;12.980;2022-12-18T08:42:45;36.53;;;17.60;;
29200;SDS011;16244;51.956;12.980;2022-12-18T08:45:35;34.00;;;16.80;;
29200;SDS011;16244;51.956;12.980;2022-12-18T08:48:06;33.67;;;18.43;;
29200;SDS011;16244;51.956;12.980;2022-12-18T08:50:33;33.10;;;17.07;;
29200;SDS011;16244;51.956;12.980;2022-12-18T08:53:01;33.60;;;16.73;;
29200;SDS011;16244;51.956;12.980;2022-12-18T08:55:28;33.60;;;16.37;;
29200;SDS011;16244;51.956;12.980;2022-12-18T08:57:56;39.80;;;17.00;;
29200;SDS011;16244;51.956;12.980;2022-12-18T09:00:23;36.10;;;17.10;;
29200;SDS011;16244;51.956;12.980;2022-12-18T09:02:52;33.03;;;17.87;;
29200;SDS011;16244;51.956;12.980;2022-12-18T09:05:19;33.90;;;16.73;;
29200;SDS011;16244;51.956;12.980;2022-12-18T09:07:46;39.37;;;18.33;;
29200;SDS011;16244;51.956;12.980;2022-12-18T09:10:13;39.27;;;17.40;;
29200;SDS011;16244;51.956;12.980;2022-12-18T09:12:40;37.83;;;18.00;;
29200;SDS011;16244;51.956;12.980;2022-12-18T09:15:08;37.50;;;17.00;;
29200;SDS011;16244;51.956;12.980;2022-12-18T09:17:36;34.47;;;17.30;;
29200;SDS011;16244;51.956;12.980;2022-12-18T09:20:05;35.30;;;16.87;;
29200;SDS011;16244;51.956;12.980;2022-12-18T09:22:33;34.30;;;16.57;;
29200;SDS011;16244;51.956;12.980;2022-12-18T09:25:00;30.13;;;15.80;;
29200;SDS011;16244;51.956;12.980;2022-12-18T09:27:27;38.07;;;18.13;;
29200;SDS011;16244;51.956;12.980;2022-12-18T09:29:54;34.07;;;16.93;;
29200;SDS011;16244;51.956;12.980;2022-12-18T09:32:21;34.57;;;16.10;;
29200;SDS011;16244;51.956;12.980;2022-12-18T09:34:48;33.03;;;17.00;;
29200;SDS011;16244;51.956;12.980;2022-12-18T09:37:17;34.07;;;16.10;;
29200;SDS011;16244;51.956;12.980;2022-12-18T09:39:44;35.07;;;17.20;;
29200;SDS011;16244;51.956;12.980;2022-12-18T09:42:12;34.10;;;17.63;;
29200;SDS011;16244;51.956;12.980;2022-12-18T09:44:48;37.73;;;18.13;;
29200;SDS011;16244;51.956;12.980;2022-12-18T09:47:17;38.20;;;18.37;;
29200;SDS011;16244;51.956;12.980;2022-12-18T09:49:47;35.00;;;17.83;;
29200;SDS011;16244;51.956;12.980;2022-12-18T09:52:21;42.67;;;17.97;;
29200;SDS011;16244;51.956;12.980;2022-12-18T09:54:54;36.87;;;17.83;;
29200;SDS011;16244;51.956;12.980;2022-12-18T09:57:25;37.13;;;16.90;;
29200;SDS011;16244;51.956;12.980;2022-12-18T09:59:54;27.17;;;14.80;;
29200;SDS011;16244;51.956;12.980;2022-12-18T10:02:24;26.60;;;14.17;;
29200;SDS011;16244;51.956;12.980;2022-12-18T10:05:02;30.90;;;16.33;;
29200;SDS011;16244;51.956;12.980;2022-12-18T10:07:35;32.50;;;15.90;;
29200;SDS011;16244;51.956;12.980;2022-12-18T10:10:13;33.27;;;16.40;;
29200;SDS011;16244;51.956;12.980;2022-12-18T10:12:51;27.17;;;14.23;;
29200;SDS011;16244;51.956;12.980;2022-12-18T10:15:27;27.30;;;15.93;;
29200;SDS011;16244;51.956;12.980;2022-12-18T10:18:02;28.57;;;14.23;;
29200;SDS011;16244;51.956;12.980;2022-12-18T10:20:44;31.67;;;15.60;;
29200;SDS011;16244;51.956;12.980;2022-12-18T10:23:16;27.70;;;14.17;;
29200;SDS011;16244;51.956;12.980;2022-12-18T10:25:51;27.80;;;15.63;;
29200;SDS011;16244;51.956;12.980;2022-12-18T10:28:22;22.97;;;14.60;;
29200;SDS011;16244;51.956;12.980;2022-12-18T10:30:50;27.83;;;14.43;;
29200;SDS011;16244;51.956;12.980;2022-12-18T10:33:19;30.57;;;14.93;;
29200;SDS011;16244;51.956;12.980;2022-12-18T10:35:51;28.10;;;15.20;;
29200;SDS011;16244;51.956;12.980;2022-12-18T10:38:26;30.63;;;13.60;;
29200;SDS011;16244;51.956;12.980;2022-12-18T10:40:56;26.13;;;13.20;;
29200;SDS011;16244;51.956;12.980;2022-12-18T10:43:25;27.60;;;13.57;;
29200;SDS011;16244;51.956;12.980;2022-12-18T10:45:58;25.43;;;14.50;;
29200;SDS011;16244;51.956;12.980;2022-12-18T10:48:40;20.80;;;12.53;;
29200;SDS011;16244;51.956;12.980;2022-12-18T10:51:19;23.93;;;13.80;;
29200;SDS011;16244;51.956;12.980;2022-12-18T10:53:52;20.03;;;12.20;;
29200;SDS011;16244;51.956;12.980;2022-12-18T10:56:23;27.17;;;13.83;;
29200;SDS011;16244;51.956;12.980;2022-12-18T10:59:09;24.83;;;13.77;;
29200;SDS011;16244;51.956;12.980;2022-12-18T11:01:56;21.00;;;12.37;;
29200;SDS011;16244;51.956;12.980;2022-12-18T11:04:49;23.03;;;13.30;;
29200;SDS011;16244;51.956;12.980;2022-12-18T11:07:47;26.27;;;14.23;;
29200;SDS011;16244;51.956;12.980;2022-12-18T11:14:00;29.37;;;14.87;;
29200;SDS011;16244;51.956;12.980;2022-12-18T11:17:16;19.63;;;11.50;;
29200;SDS011;16244;51.956;12.980;2022-12-18T11:20:20;22.87;;;11.87;;
29200;SDS011;16244;51.956;12.980;2022-12-18T11:23:17;24.67;;;13.23;;
29200;SDS011;16244;51.956;12.980;2022-12-18T11:32:51;21.20;;;11.97;;
29200;SDS011;16244;51.956;12.980;2022-12-18T11:36:00;19.00;;;11.73;;
29200;SDS011;16244;51.956;12.980;2022-12-18T11:39:02;24.23;;;12.90;;
29200;SDS011;16244;51.956;12.980;2022-12-18T11:41:52;22.53;;;11.23;;
29200;SDS011;16244;51.956;12.980;2022-12-18T11:45:01;28.30;;;13.10;;
29200;SDS011;16244;51.956;12.980;2022-12-18T11:54:53;20.73;;;12.57;;
29200;SDS011;16244;51.956;12.980;2022-12-18T11:57:54;24.60;;;12.57;;
29200;SDS011;16244;51.956;12.980;2022-12-18T12:01:00;19.87;;;12.37;;
29200;SDS011;16244;51.956;12.980;2022-12-18T12:04:05;25.20;;;12.90;;
29200;SDS011;16244;51.956;12.980;2022-12-18T12:07:09;21.70;;;11.67;;
29200;SDS011;16244;51.956;12.980;2022-12-18T12:13:31;19.53;;;12.93;;
29200;SDS011;16244;51.956;12.980;2022-12-18T12:16:46;25.37;;;13.40;;
29200;SDS011;16244;51.956;12.980;2022-12-18T12:19:50;20.20;;;12.40;;
29200;SDS011;16244;51.956;12.980;2022-12-18T12:22:42;21.17;;;12.00;;
29200;SDS011;16244;51.956;12.980;2022-12-18T12:29:00;21.80;;;12.10;;
29200;SDS011;16244;51.956;12.980;2022-12-18T12:31:52;19.60;;;11.67;;
29200;SDS011;16244;51.956;12.980;2022-12-18T12:35:02;20.33;;;11.77;;
29200;SDS011;16244;51.956;12.980;2022-12-18T12:38:00;21.50;;;11.50;;
29200;SDS011;16244;51.956;12.980;2022-12-18T12:40:51;24.37;;;12.90;;
29200;SDS011;16244;51.956;12.980;2022-12-18T12:50:12;27.20;;;13.00;;
29200;SDS011;16244;51.956;12.980;2022-12-18T12:52:57;28.63;;;14.63;;
29200;SDS011;16244;51.956;12.980;2022-12-18T12:55:53;20.20;;;12.57;;
29200;SDS011;16244;51.956;12.980;2022-12-18T12:58:53;22.90;;;12.60;;
29200;SDS011;16244;51.956;12.980;2022-12-18T13:01:58;20.50;;;12.40;;
29200;SDS011;16244;51.956;12.980;2022-12-18T13:07:56;22.40;;;12.60;;
29200;SDS011;16244;51.956;12.980;2022-12-18T13:10:54;22.30;;;13.13;;
29200;SDS011;16244;51.956;12.980;2022-12-18T13:13:52;23.67;;;13.07;;
29200;SDS011;16244;51.956;12.980;2022-12-18T13:17:15;23.00;;;12.03;;
29200;SDS011;16244;51.956;12.980;2022-12-18T13:26:38;20.43;;;12.07;;
29200;SDS011;16244;51.956;12.980;2022-12-18T13:32:31;23.43;;;12.47;;
29200;SDS011;16244;51.956;12.980;2022-12-18T13:35:39;21.43;;;11.77;;
29200;SDS011;16244;51.956;12.980;2022-12-18T13:38:38;27.33;;;13.60;;
29200;SDS011;16244;51.956;12.980;2022-12-18T13:48:35;24.50;;;12.90;;
29200;SDS011;16244;51.956;12.980;2022-12-18T13:51:05;20.77;;;12.27;;
29200;SDS011;16244;51.956;12.980;2022-12-18T13:53:36;27.57;;;13.73;;
29200;SDS011;16244;51.956;12.980;2022-12-18T13:56:05;21.27;;;12.73;;
29200;SDS011;16244;51.956;12.980;2022-12-18T13:58:34;25.57;;;13.30;;
29200;SDS011;16244;51.956;12.980;2022-12-18T14:01:01;20.10;;;12.43;;
29200;SDS011;16244;51.956;12.980;2022-12-18T14:03:31;25.63;;;12.10;;
29200;SDS011;16244;51.956;12.980;2022-12-18T14:05:59;23.90;;;13.30;;
29200;SDS011;16244;51.956;12.980;2022-12-18T14:08:36;28.80;;;13.73;;
29200;SDS011;16244;51.956;12.980;2022-12-18T14:11:05;24.27;;;13.27;;
29200;SDS011;16244;51.956;12.980;2022-12-18T14:13:35;25.83;;;13.87;;
29200;SDS011;16244;51.956;12.980;2022-12-18T14:16:05;29.33;;;13.60;;
29200;SDS011;16244;51.956;12.980;2022-12-18T14:18:37;22.23;;;11.90;;
29200;SDS011;16244;51.956;12.980;2022-12-18T14:21:16;23.47;;;12.57;;
29200;SDS011;16244;51.956;12.980;2022-12-18T14:23:46;23.67;;;12.27;;
29200;SDS011;16244;51.956;12.980;2022-12-18T14:26:20;28.57;;;13.00;;
29200;SDS011;16244;51.956;12.980;2022-12-18T14:28:56;25.17;;;13.70;;
29200;SDS011;16244;51.956;12.980;2022-12-18T14:31:26;22.87;;;13.10;;
29200;SDS011;16244;51.956;12.980;2022-12-18T14:33:55;21.10;;;13.00;;
29200;SDS011;16244;51.956;12.980;2022-12-18T14:36:23;24.93;;;12.80;;
29200;SDS011;16244;51.956;12.980;2022-12-18T14:38:52;21.77;;;12.37;;
29200;SDS011;16244;51.956;12.980;2022-12-18T14:41:20;30.17;;;12.57;;
29200;SDS011;16244;51.956;12.980;2022-12-18T14:43:48;24.07;;;11.77;;
29200;SDS011;16244;51.956;12.980;2022-12-18T14:46:28;21.97;;;12.93;;
29200;SDS011;16244;51.956;12.980;2022-12-18T14:49:30;29.43;;;11.63;;
29200;SDS011;16244;51.956;12.980;2022-12-18T14:52:14;21.10;;;11.47;;
29200;SDS011;16244;51.956;12.980;2022-12-18T14:54:49;20.97;;;11.63;;
29200;SDS011;16244;51.956;12.980;2022-12-18T14:57:18;26.10;;;12.73;;
29200;SDS011;16244;51.956;12.980;2022-12-18T15:00:04;19.47;;;10.67;;
29200;SDS011;16244;51.956;12.980;2022-12-18T15:02:34;19.27;;;10.53;;
29200;SDS011;16244;51.956;12.980;2022-12-18T15:05:03;23.37;;;12.03;;
29200;SDS011;16244;51.956;12.980;2022-12-18T15:07:39;23.90;;;10.73;;
29200;SDS011;16244;51.956;12.980;2022-12-18T15:10:10;21.67;;;11.30;;
29200;SDS011;16244;51.956;12.980;2022-12-18T15:12:40;20.67;;;11.60;;
29200;SDS011;16244;51.956;12.980;2022-12-18T15:18:16;20.30;;;11.20;;
29200;SDS011;16244;51.956;12.980;2022-12-18T15:20:46;24.43;;;11.03;;
29200;SDS011;16244;51.956;12.980;2022-12-18T15:23:16;17.50;;;10.07;;
29200;SDS011;16244;51.956;12.980;2022-12-18T15:25:46;21.20;;;10.77;;
29200;SDS011;16244;51.956;12.980;2022-12-18T15:28:19;17.20;;;10.50;;
29200;SDS011;16244;51.956;12.980;2022-12-18T15:31:00;20.10;;;10.80;;
29200;SDS011;16244;51.956;12.980;2022-12-18T15:33:31;23.10;;;12.17;;
29200;SDS011;16244;51.956;12.980;2022-12-18T15:36:00;22.80;;;12.40;;
29200;SDS011;16244;51.956;12.980;2022-12-18T15:38:30;15.20;;;10.03;;
29200;SDS011;16244;51.956;12.980;2022-12-18T15:40:57;18.67;;;11.00;;
29200;SDS011;16244;51.956;12.980;2022-12-18T15:43:25;22.17;;;12.50;;
29200;SDS011;16244;51.956;12.980;2022-12-18T15:46:02;18.97;;;10.63;;
29200;SDS011;16244;51.956;12.980;2022-12-18T15:48:33;21.40;;;12.67;;
29200;SDS011;16244;51.956;12.980;2022-12-18T15:51:01;22.83;;;11.93;;
29200;SDS011;16244;51.956;12.980;2022-12-18T15:53:29;29.63;;;11.80;;
29200;SDS011;16244;51.956;12.980;2022-12-18T15:55:58;29.17;;;12.23;;
29200;SDS011;16244;51.956;12.980;2022-12-18T15:58:43;21.90;;;12.13;;
29200;SDS011;16244;51.956;12.980;2022-12-18T16:01:10;23.03;;;12.27;;
29200;SDS011;16244;51.956;12.980;2022-12-18T16:03:39;29.63;;;11.50;;
29200;SDS011;16244;51.956;12.980;2022-12-18T16:06:07;23.53;;;11.50;;
29200;SDS011;16244;51.956;12.980;2022-12-18T16:08:35;17.90;;;10.20;;
29200;SDS011;16244;51.956;12.980;2022-12-18T16:11:02;27.70;;;13.10;;
29200;SDS011;16244;51.956;12.980;2022-12-18T16:13:29;27.17;;;12.30;;
29200;SDS011;16244;51.956;12.980;2022-12-18T16:15:57;26.70;;;12.10;;
29200;SDS011;16244;51.956;12.980;2022-12-18T16:18:24;22.37;;;11.50;;
29200;SDS011;16244;51.956;12.980;2022-12-18T16:20:52;26.57;;;12.60;;
29200;SDS011;16244;51.956;12.980;2022-12-18T16:23:19;24.50;;;12.80;;
29200;SDS011;16244;51.956;12.980;2022-12-18T16:25:47;22.03;;;12.97;;
29200;SDS011;16244;51.956;12.980;2022-12-18T16:28:14;32.93;;;12.87;;
29200;SDS011;16244;51.956;12.980;2022-12-18T16:30:41;29.97;;;13.20;;
29200;SDS011;16244;51.956;12.980;2022-12-18T16:33:08;24.50;;;12.23;;